Time;durP1;ratioP1;P1;durP2;ratioP2;P2;SDS_P1;SDS_P2;PMS_P1;PMS_P2;Temp;Humidity;BMP_temperature;BMP_pressure;BME280_temperature;BME280_humidity;BME280_pressure;Samples;Min_cycle;Max_cycle;Signal;HPM_P1;HPM_P2
2023/08/15 00:01:40;;;;;;;4.28;3.90;;;22.50;99.90;;;;;;5014410;28;20164;-45
2023/08/15 00:04:06;;;;;;;4.38;3.60;;;22.40;99.90;;;;;;5014987;28;20179;-46
2023/08/15 00:06:31;;;;;;;7.25;3.53;;;22.40;99.90;;;;;;5014827;28;20176;-45
2023/08/15 00:08:59;;;;;;;6.82;3.67;;;22.40;99.90;;;;;;5014746;28;20262;-46
2023/08/15 00:11:25;;;;;;;4.47;3.70;;;22.40;99.90;;;;;;5014762;28;20204;-45
2023/08/15 00:13:55;;;;;;;5.72;3.95;;;22.40;99.90;;;;;;5014468;28;20266;-46
2023/08/15 00:16:21;;;;;;;7.28;3.70;;;22.40;99.90;;;;;;5014949;28;20545;-45
2023/08/15 00:18:46;;;;;;;4.35;3.78;;;22.40;99.90;;;;;;5014693;28;20176;-46
2023/08/15 00:21:12;;;;;;;5.53;3.97;;;22.30;99.90;;;;;;5014904;28;20164;-45
2023/08/15 00:23:38;;;;;;;8.95;4.05;;;22.30;99.90;;;;;;5017082;28;20175;-46
2023/08/15 00:26:03;;;;;;;6.03;3.75;;;22.30;99.90;;;;;;5034383;28;20172;-46
2023/08/15 00:28:29;;;;;;;4.38;3.97;;;22.20;99.90;;;;;;5034173;28;20642;-45
2023/08/15 00:30:55;;;;;;;6.60;3.83;;;22.30;99.90;;;;;;5034110;28;20657;-46
2023/08/15 00:33:20;;;;;;;4.68;3.78;;;22.30;99.90;;;;;;5033598;28;20207;-46
2023/08/15 00:35:46;;;;;;;4.05;3.47;;;22.30;99.90;;;;;;5034093;28;20238;-45
2023/08/15 00:38:11;;;;;;;5.85;4.18;;;22.30;99.90;;;;;;5034284;28;20175;-46
2023/08/15 00:40:40;;;;;;;4.88;3.78;;;22.30;99.90;;;;;;5033891;28;20293;-46
2023/08/15 00:43:06;;;;;;;7.60;4.15;;;22.30;99.90;;;;;;5034377;28;20163;-45
2023/08/15 00:45:34;;;;;;;5.90;4.05;;;22.20;99.90;;;;;;5033963;28;20175;-46
2023/08/15 00:47:59;;;;;;;4.30;3.75;;;22.30;99.90;;;;;;5033875;28;20194;-45
2023/08/15 00:50:25;;;;;;;3.88;3.45;;;22.20;99.90;;;;;;5033940;28;20189;-46
2023/08/15 00:52:51;;;;;;;5.50;4.00;;;22.20;99.90;;;;;;5033664;28;20677;-46
2023/08/15 00:55:18;;;;;;;5.80;3.78;;;22.20;99.90;;;;;;5017745;28;20229;-46
2023/08/15 00:57:43;;;;;;;6.15;3.70;;;22.00;99.90;;;;;;5013919;28;20168;-45
2023/08/15 01:00:11;;;;;;;4.65;3.88;;;22.10;99.90;;;;;;5013894;28;20646;-46
2023/08/15 01:02:37;;;;;;;4.40;3.88;;;22.10;99.90;;;;;;5014413;28;20572;-45
2023/08/15 01:05:04;;;;;;;7.57;4.18;;;22.10;99.90;;;;;;5013730;28;20538;-46
2023/08/15 01:07:30;;;;;;;6.32;3.92;;;22.00;99.90;;;;;;5013887;28;20523;-46
2023/08/15 01:09:56;;;;;;;4.75;3.65;;;22.10;99.90;;;;;;5013597;28;20183;-46
2023/08/15 01:12:54;;;;;;;4.97;4.00;;;21.90;99.90;;;;;;5013283;28;20251;-46
2023/08/15 01:15:28;;;;;;;4.10;3.45;;;22.00;99.90;;;;;;5013765;28;20255;-45
2023/08/15 01:18:08;;;;;;;5.90;4.13;;;21.90;99.90;;;;;;5013477;28;20187;-46
2023/08/15 01:20:36;;;;;;;5.10;3.28;;;21.90;99.90;;;;;;5013936;28;20172;-49
2023/08/15 01:23:06;;;;;;;4.15;3.80;;;21.80;99.90;;;;;;5013451;28;20251;-51
2023/08/15 01:25:32;;;;;;;4.97;3.58;;;21.90;99.90;;;;;;5033004;28;20250;-47
2023/08/15 01:27:59;;;;;;;6.00;3.67;;;21.90;99.90;;;;;;5033076;28;20164;-46
2023/08/15 01:30:25;;;;;;;4.78;3.95;;;21.90;99.90;;;;;;5033242;28;20175;-50
2023/08/15 01:33:10;;;;;;;3.72;3.35;;;21.90;99.90;;;;;;5032802;28;20539;-51
2023/08/15 01:35:42;;;;;;;4.90;3.58;;;22.00;99.90;;;;;;5033239;28;20173;-48
2023/08/15 01:38:14;;;;;;;5.03;3.17;;;21.90;99.90;;;;;;5032965;28;20167;-45
2023/08/15 01:40:41;;;;;;;4.32;3.90;;;21.90;99.90;;;;;;5032764;28;20199;-49
2023/08/15 01:43:10;;;;;;;4.50;4.05;;;21.90;99.90;;;;;;5033281;28;20163;-48
2023/08/15 01:45:36;;;;;;;5.13;3.63;;;21.90;99.90;;;;;;5032244;28;20170;-50
2023/08/15 01:48:01;;;;;;;5.00;3.55;;;21.90;99.90;;;;;;5032655;28;20171;-50
2023/08/15 01:50:27;;;;;;;4.72;3.67;;;21.90;99.90;;;;;;5032611;28;20206;-51
2023/08/15 01:52:53;;;;;;;5.25;3.35;;;21.90;99.90;;;;;;5032777;28;20199;-48
2023/08/15 01:55:18;;;;;;;4.40;3.22;;;21.80;99.90;;;;;;5032192;28;20175;-48
2023/08/15 01:57:44;;;;;;;4.07;3.42;;;21.90;99.90;;;;;;5032505;28;20168;-47
2023/08/15 02:00:10;;;;;;;4.30;3.90;;;21.90;99.90;;;;;;5032477;28;20194;-50
2023/08/15 02:02:35;;;;;;;6.05;4.65;;;22.00;99.90;;;;;;5031590;28;20278;-49
2023/08/15 02:05:02;;;;;;;6.72;3.53;;;21.90;99.90;;;;;;5032382;28;20635;-48
2023/08/15 02:07:28;;;;;;;6.72;4.80;;;22.00;99.90;;;;;;5032338;28;20246;-50
2023/08/15 02:09:54;;;;;;;7.60;4.55;;;22.00;99.90;;;;;;5030787;28;20545;-49
2023/08/15 02:12:19;;;;;;;11.77;5.45;;;21.90;99.90;;;;;;5032043;28;20222;-50
2023/08/15 02:14:45;;;;;;;12.52;6.13;;;21.90;99.90;;;;;;5032201;28;20174;-47
2023/08/15 02:17:10;;;;;;;16.60;7.82;;;22.00;99.90;;;;;;5032202;28;20525;-46
2023/08/15 02:19:36;;;;;;;18.77;7.60;;;22.00;99.90;;;;;;5032628;28;20657;-49
2023/08/15 02:22:01;;;;;;;21.45;8.23;;;21.90;99.90;;;;;;5032386;28;20577;-48
2023/08/15 02:24:28;;;;;;;22.35;9.25;;;22.00;99.90;;;;;;5021467;28;20175;-46
2023/08/15 02:26:54;;;;;;;25.20;8.75;;;21.90;99.90;;;;;;5012233;28;20539;-50
2023/08/15 02:29:19;;;;;;;8.57;5.25;;;21.90;99.90;;;;;;5012205;28;20172;-47
2023/08/15 02:31:47;;;;;;;6.43;4.82;;;21.80;99.90;;;;;;5012027;28;20183;-48
2023/08/15 02:34:17;;;;;;;8.85;4.50;;;21.90;99.90;;;;;;5012644;28;20171;-50
2023/08/15 02:36:46;;;;;;;6.00;4.72;;;21.80;99.90;;;;;;5011979;28;20650;-50
2023/08/15 02:39:13;;;;;;;6.47;4.40;;;21.90;99.90;;;;;;5012025;28;20663;-47
2023/08/15 02:41:39;;;;;;;10.15;4.80;;;21.90;99.90;;;;;;5012232;28;20207;-50
2023/08/15 02:44:05;;;;;;;7.93;4.90;;;21.90;99.90;;;;;;5012374;28;20200;-50
2023/08/15 02:46:30;;;;;;;5.45;4.10;;;21.80;99.90;;;;;;5011973;28;20230;-50
2023/08/15 02:48:56;;;;;;;5.97;4.20;;;21.90;99.90;;;;;;5011868;28;20213;-48
2023/08/15 02:51:21;;;;;;;8.18;4.75;;;21.80;99.90;;;;;;5011877;28;20172;-46
2023/08/15 02:53:47;;;;;;;6.95;4.93;;;21.70;99.90;;;;;;5012848;28;20294;-46
2023/08/15 02:56:12;;;;;;;5.25;4.45;;;21.70;99.90;;;;;;5010386;28;20176;-46
2023/08/15 02:58:38;;;;;;;5.10;4.60;;;21.70;99.90;;;;;;5010526;28;20180;-46
2023/08/15 03:01:03;;;;;;;9.05;4.72;;;21.60;99.90;;;;;;5012292;28;20175;-45
2023/08/15 03:03:29;;;;;;;8.18;4.97;;;21.60;99.90;;;;;;5011845;28;20167;-48
2023/08/15 03:06:00;;;;;;;6.97;5.00;;;21.80;99.90;;;;;;5012117;28;20176;-47
2023/08/15 03:08:25;;;;;;;6.95;4.50;;;21.60;99.90;;;;;;5011778;28;20164;-50
2023/08/15 03:10:51;;;;;;;13.35;5.70;;;21.60;99.90;;;;;;5011675;28;20179;-49
2023/08/15 03:13:17;;;;;;;5.88;5.22;;;21.60;99.90;;;;;;5011469;28;20235;-48
2023/08/15 03:15:55;;;;;;;7.65;5.28;;;21.70;99.90;;;;;;5011649;28;20526;-47
2023/08/15 03:18:21;;;;;;;8.27;5.70;;;21.60;99.90;;;;;;5011680;28;20183;-49
2023/08/15 03:21:03;;;;;;;7.03;5.53;;;21.70;99.90;;;;;;5011556;28;20172;-47
2023/08/15 03:23:29;;;;;;;9.80;5.93;;;21.70;99.90;;;;;;5014333;28;20179;-48
2023/08/15 03:25:59;;;;;;;13.85;6.88;;;21.80;99.90;;;;;;5031080;28;20221;-47
2023/08/15 03:28:25;;;;;;;7.75;5.75;;;21.80;99.90;;;;;;5031297;28;20179;-47
2023/08/15 03:30:51;;;;;;;9.15;6.53;;;21.60;99.90;;;;;;5031188;28;20179;-46
2023/08/15 03:33:17;;;;;;;12.95;5.90;;;21.70;99.90;;;;;;5031005;28;20571;-48
2023/08/15 03:35:50;;;;;;;13.80;6.40;;;21.70;99.90;;;;;;5031211;28;20586;-48
2023/08/15 03:38:17;;;;;;;6.25;5.63;;;21.50;99.90;;;;;;5029869;28;20172;-47
2023/08/15 03:40:44;;;;;;;10.15;6.13;;;21.60;99.90;;;;;;5031148;28;20168;-47
2023/08/15 03:43:10;;;;;;;10.85;5.43;;;21.50;99.90;;;;;;5031380;28;20226;-46
2023/08/15 03:45:36;;;;;;;9.23;5.68;;;21.40;99.90;;;;;;5031596;28;20178;-46
2023/08/15 03:48:02;;;;;;;7.07;5.57;;;21.40;99.90;;;;;;5031109;28;20179;-48
2023/08/15 03:50:27;;;;;;;11.98;5.65;;;21.30;99.90;;;;;;5031009;28;20160;-47
2023/08/15 03:52:53;;;;;;;7.43;4.85;;;21.30;99.90;;;;;;5030913;28;20571;-47
2023/08/15 03:55:18;;;;;;;9.75;5.35;;;21.20;99.90;;;;;;5011508;28;20636;-48
2023/08/15 03:57:44;;;;;;;7.43;5.63;;;21.20;99.90;;;;;;5011287;28;20168;-48
2023/08/15 04:00:11;;;;;;;8.15;4.97;;;21.20;99.90;;;;;;5011229;28;20160;-49
2023/08/15 04:02:36;;;;;;;17.23;12.65;;;21.10;99.90;;;;;;5011676;28;20172;-49
2023/08/15 04:05:03;;;;;;;7.88;6.65;;;21.20;99.90;;;;;;5011235;28;20525;-49
2023/08/15 04:07:28;;;;;;;7.15;5.45;;;21.20;99.90;;;;;;5011049;28;20243;-49
2023/08/15 04:09:54;;;;;;;9.35;5.28;;;21.20;99.90;;;;;;5013916;28;20191;-50
2023/08/15 04:12:19;;;;;;;9.57;6.13;;;21.10;99.90;;;;;;5014483;28;20222;-46
2023/08/15 04:14:45;;;;;;;12.80;5.60;;;21.10;99.90;;;;;;5014740;28;20180;-49
2023/08/15 04:17:11;;;;;;;8.50;5.70;;;21.00;99.90;;;;;;5014668;28;20160;-50
2023/08/15 04:19:36;;;;;;;9.40;5.55;;;21.10;99.90;;;;;;5014998;28;20169;-49
2023/08/15 04:22:02;;;;;;;9.35;6.22;;;21.20;99.90;;;;;;5014965;28;20160;-50
2023/08/15 04:24:28;;;;;;;15.55;9.65;;;21.00;99.90;;;;;;5014600;28;20624;-45
2023/08/15 04:26:53;;;;;;;9.20;5.50;;;21.10;99.90;;;;;;5014340;28;20156;-45
2023/08/15 04:29:19;;;;;;;9.30;5.00;;;21.00;99.90;;;;;;5014324;28;20171;-45
2023/08/15 04:31:45;;;;;;;8.35;4.70;;;21.00;99.90;;;;;;5014210;28;20648;-45
2023/08/15 04:34:10;;;;;;;8.32;5.47;;;21.10;99.90;;;;;;5014018;28;20212;-46
2023/08/15 04:36:36;;;;;;;8.98;5.50;;;21.00;99.90;;;;;;5014495;28;20190;-45
2023/08/15 04:39:02;;;;;;;7.95;5.43;;;21.20;99.90;;;;;;5014176;28;20172;-46
2023/08/15 04:41:28;;;;;;;19.15;11.75;;;21.10;99.90;;;;;;5014157;28;20175;-45
2023/08/15 04:43:53;;;;;;;9.73;5.72;;;21.00;99.90;;;;;;5014174;28;20176;-45
2023/08/15 04:46:19;;;;;;;14.00;7.43;;;21.00;99.90;;;;;;5014067;28;20172;-45
2023/08/15 04:48:44;;;;;;;24.60;13.68;;;21.20;99.90;;;;;;5014082;28;20207;-45
2023/08/15 04:51:11;;;;;;;13.30;6.28;;;21.00;99.90;;;;;;5013931;28;20206;-45
2023/08/15 04:53:37;;;;;;;10.27;5.50;;;21.20;99.90;;;;;;5019619;28;20574;-45
2023/08/15 04:56:02;;;;;;;11.43;5.95;;;21.20;99.90;;;;;;5033849;28;20178;-45
2023/08/15 04:58:28;;;;;;;10.15;5.40;;;21.10;99.90;;;;;;5033417;28;20171;-50
2023/08/15 05:00:53;;;;;;;11.82;5.47;;;21.10;99.90;;;;;;5033505;28;20175;-49
2023/08/15 05:03:19;;;;;;;27.58;14.07;;;21.30;99.90;;;;;;5033411;28;20171;-48
2023/08/15 05:05:45;;;;;;;21.13;11.68;;;21.20;99.90;;;;;;5033761;28;20159;-49
2023/08/15 05:08:12;;;;;;;25.85;10.57;;;21.20;99.90;;;;;;5032091;28;20171;-46
2023/08/15 05:10:37;;;;;;;17.45;10.82;;;21.20;99.90;;;;;;5033281;28;20635;-47
2023/08/15 05:13:03;;;;;;;15.27;7.00;;;21.20;99.90;;;;;;5033471;28;20229;-46
2023/08/15 05:15:29;;;;;;;11.75;6.93;;;21.20;99.90;;;;;;5033446;28;20182;-50
2023/08/15 05:17:54;;;;;;;16.10;8.85;;;21.40;99.90;;;;;;5033182;28;20170;-49
2023/08/15 05:20:20;;;;;;;12.15;5.95;;;21.20;99.90;;;;;;5030482;28;20213;-48
2023/08/15 05:22:45;;;;;;;15.32;6.85;;;21.20;99.90;;;;;;5032744;28;20171;-50
2023/08/15 05:25:11;;;;;;;9.10;6.35;;;21.20;99.90;;;;;;5033046;28;20167;-49
2023/08/15 05:27:36;;;;;;;14.00;7.03;;;21.20;99.90;;;;;;5033297;28;20183;-47
2023/08/15 05:30:02;;;;;;;12.02;5.60;;;21.20;99.90;;;;;;5033218;28;20168;-49
2023/08/15 05:32:28;;;;;;;10.35;5.38;;;21.20;99.90;;;;;;5032948;28;20207;-50
2023/08/15 05:34:54;;;;;;;8.75;6.10;;;21.10;99.90;;;;;;5032792;28;20718;-49
2023/08/15 05:37:19;;;;;;;9.35;5.40;;;21.00;99.90;;;;;;5033041;28;20590;-51
2023/08/15 05:39:45;;;;;;;11.30;4.82;;;21.20;99.90;;;;;;5032713;28;20553;-50
2023/08/15 05:42:17;;;;;;;10.52;5.63;;;21.00;99.90;;;;;;5032268;28;20172;-51
2023/08/15 05:44:46;;;;;;;7.32;4.55;;;21.10;99.90;;;;;;5032886;28;20187;-48
2023/08/15 05:47:12;;;;;;;8.18;5.53;;;21.10;99.90;;;;;;5032535;28;20627;-50
2023/08/15 05:49:37;;;;;;;9.20;5.38;;;21.10;99.90;;;;;;5032436;28;20258;-49
2023/08/15 05:52:03;;;;;;;8.95;5.30;;;21.00;99.90;;;;;;5033013;28;20177;-51
2023/08/15 05:54:29;;;;;;;8.48;5.03;;;22.30;99.90;;;;;;5032648;28;20175;-50
2023/08/15 05:56:55;;;;;;;8.45;5.32;;;21.10;99.90;;;;;;5032449;28;20696;-49
2023/08/15 05:59:21;;;;;;;7.20;4.82;;;21.10;99.90;;;;;;5032333;28;20167;-49
2023/08/15 06:01:47;;;;;;;10.20;5.43;;;21.30;99.90;;;;;;5032560;28;20258;-46
2023/08/15 06:04:12;;;;;;;9.93;5.07;;;21.00;99.90;;;;;;5032415;28;20619;-50
2023/08/15 06:06:38;;;;;;;9.00;5.47;;;21.20;99.90;;;;;;5032107;28;20179;-50
2023/08/15 06:09:04;;;;;;;9.77;5.65;;;21.40;99.90;;;;;;5032601;28;20502;-47
2023/08/15 06:11:30;;;;;;;8.63;5.78;;;21.10;99.90;;;;;;5032145;28;20651;-50
2023/08/15 06:13:55;;;;;;;10.35;6.15;;;21.10;99.90;;;;;;5016215;28;20238;-50
2023/08/15 06:16:21;;;;;;;9.75;5.72;;;21.10;99.90;;;;;;5012390;28;20170;-49
2023/08/15 06:18:46;;;;;;;9.07;5.45;;;21.10;99.90;;;;;;5012377;28;20180;-49
2023/08/15 06:21:12;;;;;;;10.65;6.28;;;21.10;99.90;;;;;;5017437;28;20167;-45
2023/08/15 06:23:37;;;;;;;12.75;6.70;;;21.10;99.90;;;;;;5031631;28;20568;-50
2023/08/15 06:26:03;;;;;;;9.63;6.32;;;21.20;99.90;;;;;;5032341;28;20250;-46
2023/08/15 06:28:29;;;;;;;9.32;6.28;;;21.20;99.90;;;;;;5031797;28;20252;-45
2023/08/15 06:30:55;;;;;;;10.70;6.88;;;21.20;99.90;;;;;;5031632;28;20183;-45
2023/08/15 06:33:20;;;;;;;8.82;5.88;;;21.20;99.90;;;;;;5031613;28;20663;-45
2023/08/15 06:35:46;;;;;;;10.48;6.85;;;21.30;99.90;;;;;;5031815;28;20176;-45
2023/08/15 06:38:11;;;;;;;9.90;6.47;;;21.10;99.90;;;;;;5031841;28;20187;-45
2023/08/15 06:40:39;;;;;;;9.25;6.07;;;21.20;99.90;;;;;;5031733;28;20167;-45
2023/08/15 06:43:04;;;;;;;9.77;6.13;;;21.30;99.90;;;;;;5023673;28;20271;-44
2023/08/15 06:45:30;;;;;;;8.80;5.75;;;21.20;99.90;;;;;;5012483;28;20200;-46
2023/08/15 06:47:55;;;;;;;9.23;5.03;;;21.20;99.90;;;;;;5011838;28;20172;-46
2023/08/15 06:50:21;;;;;;;8.82;4.70;;;21.10;99.90;;;;;;5011847;28;20579;-45
2023/08/15 06:52:47;;;;;;;7.85;4.25;;;21.20;99.90;;;;;;5011580;28;20203;-46
2023/08/15 06:55:13;;;;;;;5.90;3.72;;;21.20;99.90;;;;;;5011867;28;20172;-45
2023/08/15 06:57:38;;;;;;;5.22;4.00;;;21.20;99.90;;;;;;5011754;28;20168;-45
2023/08/15 07:00:09;;;;;;;7.13;4.05;;;21.30;99.90;;;;;;5012134;28;20247;-46
2023/08/15 07:02:35;;;;;;;10.80;4.05;;;21.40;99.90;;;;;;5012158;28;20530;-45
2023/08/15 07:05:03;;;;;;;4.95;3.53;;;21.40;99.90;;;;;;5012257;28;20168;-45
2023/08/15 07:07:29;;;;;;;5.90;3.80;;;21.40;99.90;;;;;;5011917;28;20176;-45
2023/08/15 07:09:54;;;;;;;6.53;3.38;;;21.30;99.90;;;;;;5011654;28;20679;-47
2023/08/15 07:12:20;;;;;;;4.50;3.22;;;21.50;99.90;;;;;;5012584;28;20303;-45
2023/08/15 07:14:46;;;;;;;4.05;2.78;;;21.40;99.90;;;;;;5011496;28;20175;-45
2023/08/15 07:17:11;;;;;;;5.53;2.78;;;21.40;99.90;;;;;;5011780;28;20196;-46
2023/08/15 07:19:37;;;;;;;5.15;2.42;;;21.40;99.90;;;;;;5011632;28;20212;-45
2023/08/15 07:22:03;;;;;;;6.22;2.70;;;21.50;99.90;;;;;;5011944;28;20174;-45
2023/08/15 07:24:29;;;;;;;5.38;2.75;;;21.50;99.90;;;;;;5011424;28;20596;-45
2023/08/15 07:26:54;;;;;;;6.53;3.03;;;21.70;99.90;;;;;;5011535;28;20636;-45
2023/08/15 07:29:20;;;;;;;7.82;2.88;;;21.70;99.90;;;;;;5011453;28;20176;-47
2023/08/15 07:31:45;;;;;;;5.88;3.13;;;21.80;99.90;;;;;;5011419;28;20175;-45
2023/08/15 07:34:11;;;;;;;5.60;3.40;;;21.90;99.90;;;;;;5011380;28;20212;-45
2023/08/15 07:36:37;;;;;;;6.43;3.08;;;21.90;99.90;;;;;;5011705;28;20172;-45
2023/08/15 07:39:03;;;;;;;4.43;3.22;;;21.90;99.90;;;;;;5011884;28;20191;-45
2023/08/15 07:41:29;;;;;;;8.18;3.60;;;21.90;99.90;;;;;;5011742;28;20215;-45
2023/08/15 07:43:54;;;;;;;7.90;3.55;;;22.10;99.90;;;;;;5029170;28;20209;-45
2023/08/15 07:46:20;;;;;;;7.68;3.58;;;22.10;99.90;;;;;;5034849;28;20171;-47
2023/08/15 07:48:46;;;;;;;9.80;4.25;;;22.20;99.90;;;;;;5035104;28;20258;-46
2023/08/15 07:51:11;;;;;;;7.85;3.90;;;22.30;99.90;;;;;;5035017;28;20171;-47
2023/08/15 07:53:37;;;;;;;10.07;4.00;;;22.30;99.90;;;;;;5034744;28;20554;-46
2023/08/15 07:56:03;;;;;;;6.65;3.88;;;22.20;99.90;;;;;;5035174;28;20171;-46
2023/08/15 07:58:29;;;;;;;7.03;4.05;;;22.20;99.90;;;;;;5035050;28;20172;-48
2023/08/15 08:00:55;;;;;;;6.63;4.93;;;22.10;99.90;;;;;;5034656;28;20182;-46
2023/08/15 08:03:20;;;;;;;7.22;4.18;;;22.20;99.90;;;;;;5034611;28;20171;-47
2023/08/15 08:05:46;;;;;;;9.38;5.10;;;22.20;99.90;;;;;;5034572;28;20595;-49
2023/08/15 08:08:13;;;;;;;8.13;4.63;;;22.20;99.90;;;;;;5034760;28;20196;-49
2023/08/15 08:10:39;;;;;;;6.45;4.63;;;22.10;99.90;;;;;;5034461;28;20578;-47
2023/08/15 08:13:06;;;;;;;9.18;4.80;;;21.90;99.90;;;;;;5022039;28;20216;-48
2023/08/15 08:15:32;;;;;;;7.60;5.03;;;22.00;99.90;;;;;;5015265;28;20182;-46
2023/08/15 08:17:58;;;;;;;8.07;5.35;;;22.00;99.90;;;;;;5014609;28;20176;-49
2023/08/15 08:20:25;;;;;;;7.68;4.40;;;22.00;99.90;;;;;;5014756;28;20183;-48
2023/08/15 08:22:51;;;;;;;7.35;4.00;;;22.00;99.90;;;;;;5014747;28;20245;-47
2023/08/15 08:25:19;;;;;;;8.05;5.03;;;21.90;99.90;;;;;;5014418;28;20164;-48
2023/08/15 08:27:45;;;;;;;8.25;4.00;;;22.00;99.90;;;;;;5014273;28;20548;-47
2023/08/15 08:30:12;;;;;;;8.93;4.28;;;22.00;99.90;;;;;;5013418;28;20164;-46
2023/08/15 08:32:38;;;;;;;5.13;3.90;;;22.10;99.90;;;;;;5014482;28;20208;-47
2023/08/15 08:35:05;;;;;;;10.45;4.95;;;22.20;99.90;;;;;;5014695;28;20187;-46
2023/08/15 08:37:31;;;;;;;6.95;4.28;;;22.30;99.90;;;;;;5014591;28;20640;-46
2023/08/15 08:39:57;;;;;;;8.35;4.40;;;22.30;99.90;;;;;;5014129;28;20220;-46
2023/08/15 08:42:23;;;;;;;8.50;4.00;;;22.40;99.90;;;;;;5020552;28;20631;-47
2023/08/15 08:44:50;;;;;;;8.63;3.75;;;22.40;99.90;;;;;;5033843;28;20164;-47
2023/08/15 08:47:19;;;;;;;6.85;3.72;;;22.40;99.90;;;;;;5033787;28;20250;-46
2023/08/15 08:49:47;;;;;;;6.88;3.70;;;22.50;99.90;;;;;;5034012;28;20179;-46
2023/08/15 08:52:13;;;;;;;8.43;3.80;;;22.70;99.90;;;;;;5033550;28;20168;-48
2023/08/15 08:54:39;;;;;;;6.05;3.38;;;22.70;99.90;;;;;;5033610;28;20232;-46
2023/08/15 08:57:06;;;;;;;8.77;3.80;;;22.80;99.90;;;;;;5034082;28;20163;-45
2023/08/15 08:59:34;;;;;;;6.63;3.42;;;23.00;99.90;;;;;;5033907;28;20167;-48
2023/08/15 09:02:00;;;;;;;5.47;3.20;;;23.20;99.90;;;;;;5033547;28;20155;-47
2023/08/15 09:04:26;;;;;;;6.93;3.55;;;23.20;99.90;;;;;;5033460;28;20174;-46
2023/08/15 09:06:52;;;;;;;8.77;3.70;;;23.20;99.90;;;;;;5033376;28;20554;-48
2023/08/15 09:09:19;;;;;;;5.45;3.20;;;23.30;99.90;;;;;;5033301;28;20205;-47
2023/08/15 09:11:46;;;;;;;6.22;2.53;;;23.20;99.90;;;;;;5032512;28;20627;-46
2023/08/15 09:14:12;;;;;;;6.72;2.60;;;23.30;99.90;;;;;;5032983;28;20206;-47
2023/08/15 09:16:47;;;;;;;5.68;2.42;;;23.40;99.90;;;;;;5033550;28;20178;-49
2023/08/15 09:19:13;;;;;;;8.73;2.70;;;23.60;99.90;;;;;;5033305;28;20162;-45
2023/08/15 09:21:39;;;;;;;5.78;2.80;;;23.50;99.90;;;;;;5033405;28;20177;-46
2023/08/15 09:24:05;;;;;;;7.90;4.07;;;23.60;99.90;;;;;;5033599;28;20622;-46
2023/08/15 09:26:35;;;;;;;5.97;3.10;;;23.70;99.90;;;;;;5033594;28;20175;-46
2023/08/15 09:29:07;;;;;;;9.48;2.92;;;23.90;99.90;;;;;;5033338;28;20221;-46
2023/08/15 09:31:33;;;;;;;5.00;2.83;;;23.80;99.90;;;;;;5032271;28;20221;-45
2023/08/15 09:33:58;;;;;;;7.95;3.50;;;24.00;99.90;;;;;;5033029;28;20202;-45
2023/08/15 09:36:24;;;;;;;6.15;3.42;;;24.20;99.90;;;;;;5033167;28;20208;-46
2023/08/15 09:38:58;;;;;;;5.45;2.42;;;24.40;99.90;;;;;;5033023;28;20167;-45
2023/08/15 09:41:27;;;;;;;3.20;2.40;;;24.50;99.90;;;;;;5031910;28;20657;-44
2023/08/15 09:43:53;;;;;;;5.90;2.97;;;24.60;99.90;;;;;;5012982;28;20195;-45
2023/08/15 09:46:20;;;;;;;5.15;2.60;;;24.70;99.90;;;;;;5012908;28;20167;-46
2023/08/15 09:48:48;;;;;;;5.13;2.55;;;24.60;99.90;;;;;;5012842;28;20659;-47
2023/08/15 09:51:16;;;;;;;6.90;2.83;;;24.70;99.90;;;;;;5012889;28;20179;-44
2023/08/15 09:53:43;;;;;;;6.88;2.90;;;24.70;99.90;;;;;;5012640;28;20207;-46
2023/08/15 09:56:09;;;;;;;6.18;2.75;;;24.80;99.90;;;;;;5012720;28;20163;-48
2023/08/15 09:58:35;;;;;;;5.07;2.30;;;25.20;99.90;;;;;;5013150;28;20635;-47
2023/08/15 10:01:03;;;;;;;6.95;3.13;;;25.70;99.90;;;;;;5013130;28;20175;-46
2023/08/15 10:03:37;;;;;;;7.50;2.67;;;25.70;99.90;;;;;;5012568;28;20254;-44
2023/08/15 10:06:04;;;;;;;6.88;2.22;;;25.50;99.90;;;;;;5012586;28;20533;-45
2023/08/15 10:08:29;;;;;;;7.75;2.70;;;25.50;99.90;;;;;;5012805;28;20188;-48
2023/08/15 10:10:57;;;;;;;7.50;4.03;;;25.20;99.90;;;;;;5012468;28;20167;-44
2023/08/15 10:13:28;;;;;;;6.82;2.72;;;25.20;99.90;;;;;;5031205;28;20276;-44
2023/08/15 10:15:55;;;;;;;4.07;2.20;;;25.10;99.90;;;;;;5032523;28;20174;-44
2023/08/15 10:18:21;;;;;;;9.15;2.97;;;24.80;99.90;;;;;;5032092;28;20220;-45
2023/08/15 10:20:53;;;;;;;5.57;2.80;;;24.50;99.90;;;;;;5032361;28;20179;-45
2023/08/15 10:23:29;;;;;;;6.85;2.60;;;24.70;99.90;;;;;;5032270;28;20245;-46
2023/08/15 10:25:55;;;;;;;7.32;3.10;;;24.70;99.90;;;;;;5031949;28;20163;-46
2023/08/15 10:28:21;;;;;;;5.95;2.67;;;24.70;99.90;;;;;;5031923;28;20566;-45
2023/08/15 10:30:47;;;;;;;4.95;2.50;;;24.60;99.90;;;;;;5032098;28;20221;-45
2023/08/15 10:33:16;;;;;;;4.85;2.42;;;24.60;99.90;;;;;;5031780;28;20293;-45
2023/08/15 10:36:01;;;;;;;7.50;2.65;;;24.50;99.90;;;;;;5031784;28;20166;-45
2023/08/15 10:38:39;;;;;;;7.00;2.70;;;24.80;99.90;;;;;;5031673;28;20183;-45
2023/08/15 10:41:11;;;;;;;4.90;2.35;;;24.80;99.90;;;;;;5031664;28;20206;-44
2023/08/15 10:43:37;;;;;;;5.00;2.38;;;25.20;99.90;;;;;;5016520;28;20199;-44
2023/08/15 10:46:04;;;;;;;7.28;3.65;;;25.20;99.90;;;;;;5032246;28;20186;-45
2023/08/15 10:48:40;;;;;;;8.40;4.38;;;25.00;99.90;;;;;;5032030;28;20163;-45
2023/08/15 10:51:31;;;;;;;7.65;3.25;;;24.90;99.90;;;;;;5031634;28;20224;-45
2023/08/15 10:54:06;;;;;;;8.90;3.63;;;24.90;99.90;;;;;;5031453;28;20253;-44
2023/08/15 10:56:33;;;;;;;7.43;3.22;;;25.10;99.90;;;;;;5032179;28;20249;-45
2023/08/15 10:59:07;;;;;;;6.05;2.70;;;25.30;99.90;;;;;;5031476;28;20631;-44
2023/08/15 11:01:36;;;;;;;4.38;2.30;;;25.40;99.90;;;;;;5032149;28;20178;-44
2023/08/15 11:04:02;;;;;;;4.38;2.20;;;28.60;99.90;;;;;;5032132;28;20255;-45
2023/08/15 11:06:29;;;;;;;6.18;2.28;;;25.30;99.90;;;;;;5031428;28;20257;-45
2023/08/15 11:08:58;;;;;;;6.28;2.92;;;25.30;99.90;;;;;;5031165;28;20631;-45
2023/08/15 11:11:24;;;;;;;23.33;10.90;;;25.50;99.90;;;;;;5028583;28;20274;-45
2023/08/15 11:13:52;;;;;;;10.25;4.68;;;25.80;99.90;;;;;;5011369;28;20225;-44
2023/08/15 11:16:22;;;;;;;4.82;2.40;;;26.20;99.90;;;;;;5011601;28;20176;-44
2023/08/15 11:18:48;;;;;;;15.25;6.57;;;26.00;99.90;;;;;;5014605;28;20230;-45
2023/08/15 11:21:18;;;;;;;17.17;8.25;;;26.30;99.90;;;;;;5015912;28;20176;-45
2023/08/15 11:23:44;;;;;;;5.47;2.58;;;26.20;99.90;;;;;;5015664;28;20175;-45
2023/08/15 11:26:12;;;;;;;7.10;3.00;;;26.40;99.90;;;;;;5015554;28;20167;-44
2023/08/15 11:28:38;;;;;;;11.43;3.95;;;26.50;99.90;;;;;;5015523;28;20631;-45
2023/08/15 11:31:11;;;;;;;13.27;9.07;;;26.60;99.90;;;;;;5015863;28;20171;-45
2023/08/15 11:33:37;;;;;;;8.38;3.83;;;26.30;99.90;;;;;;5015301;28;20203;-44
2023/08/15 11:36:05;;;;;;;8.25;3.50;;;26.30;99.90;;;;;;5015885;28;20696;-44
2023/08/15 11:38:32;;;;;;;6.68;3.35;;;26.30;99.90;;;;;;5016045;28;20229;-44
2023/08/15 11:40:59;;;;;;;11.20;4.80;;;26.30;99.90;;;;;;5016291;28;20218;-45
2023/08/15 11:43:28;;;;;;;9.65;6.13;;;26.40;99.90;;;;;;5015605;28;20184;-45
2023/08/15 11:45:54;;;;;;;10.32;3.53;;;26.60;99.90;;;;;;5015192;28;20668;-46
2023/08/15 11:48:20;;;;;;;10.30;3.65;;;26.70;99.90;;;;;;5015296;28;20171;-47
2023/08/15 11:50:46;;;;;;;4.13;3.35;;;26.70;99.90;;;;;;5015118;28;20170;-45
2023/08/15 11:53:16;;;;;;;8.88;3.72;;;26.80;99.90;;;;;;5015062;28;20659;-45
2023/08/15 11:55:43;;;;;;;6.68;4.40;;;26.80;99.90;;;;;;5014923;28;20632;-45
2023/08/15 11:58:21;;;;;;;6.82;3.22;;;26.90;99.90;;;;;;5015055;28;20620;-46
2023/08/15 12:00:47;;;;;;;6.05;2.67;;;26.80;99.90;;;;;;5015182;28;20509;-45
2023/08/15 12:03:12;;;;;;;8.05;3.78;;;26.80;99.90;;;;;;5014904;28;20174;-47
2023/08/15 12:05:38;;;;;;;7.72;4.00;;;26.70;99.90;;;;;;5014878;28;20202;-46
2023/08/15 12:08:04;;;;;;;7.25;3.45;;;26.50;99.90;;;;;;5014919;28;20234;-44
2023/08/15 12:10:30;;;;;;;11.65;4.40;;;26.70;99.90;;;;;;5015188;28;20163;-45
2023/08/15 12:12:56;;;;;;;8.40;3.70;;;26.90;99.90;;;;;;5031292;28;20298;-45
2023/08/15 12:15:21;;;;;;;12.10;4.03;;;27.20;99.90;;;;;;5034475;28;20250;-45
2023/08/15 12:17:47;;;;;;;8.60;3.75;;;27.00;99.90;;;;;;5034366;28;20166;-46
2023/08/15 12:20:14;;;;;;;6.85;2.80;;;26.70;99.90;;;;;;5034368;28;20197;-45
2023/08/15 12:22:41;;;;;;;7.55;3.58;;;26.60;99.90;;;;;;5034196;28;20166;-45
2023/08/15 12:25:07;;;;;;;7.50;3.40;;;26.80;99.90;;;;;;5034296;28;20166;-46
2023/08/15 12:27:34;;;;;;;8.13;3.50;;;26.90;99.90;;;;;;5034779;28;20256;-44
2023/08/15 12:30:01;;;;;;;8.85;4.10;;;26.90;99.90;;;;;;5034027;28;20262;-44
2023/08/15 12:32:26;;;;;;;11.35;3.47;;;26.90;99.90;;;;;;5034257;28;20209;-44
2023/08/15 12:34:52;;;;;;;4.90;3.28;;;26.70;99.90;;;;;;5034147;28;20631;-44
2023/08/15 12:37:18;;;;;;;5.60;3.00;;;26.60;99.90;;;;;;5033977;28;20177;-45
2023/08/15 12:39:43;;;;;;;4.65;2.85;;;26.40;99.90;;;;;;5033924;28;20166;-44
2023/08/15 12:42:09;;;;;;;6.93;2.88;;;26.30;99.90;;;;;;5033541;28;20209;-45
2023/08/15 12:44:34;;;;;;;5.15;3.28;;;26.70;99.90;;;;;;5033844;28;20175;-44